Time;durP1;ratioP1;P1;durP2;ratioP2;P2;SDS_P1;SDS_P2;PMS_P1;PMS_P2;Temp;Humidity;BMP_temperature;BMP_pressure;BME280_temperature;BME280_humidity;BME280_pressure;Samples;Min_cycle;Max_cycle;Signal;HPM_P1;HPM_P2
2021/12/02 00:01:23;;;;;;;4.22;1.70;;;;;;;-145.06;0.00;60892.56;4834922;28;20431;-87
2021/12/02 00:04:02;;;;;;;3.43;1.63;;;;;;;6.48;0.00;60892.56;4844886;28;20034;-88
2021/12/02 00:06:41;;;;;;;3.05;1.70;;;;;;;-145.06;0.00;60892.56;4822214;28;20064;-88
2021/12/02 00:09:20;;;;;;;2.00;1.60;;;;;;;6.79;0.00;60892.56;4830074;28;20685;-88
2021/12/02 00:12:00;;;;;;;3.00;1.52;;;;;;;-145.06;0.00;60892.56;4817879;28;20069;-88
2021/12/02 00:14:41;;;;;;;1.88;1.50;;;;;;;-145.06;0.00;60892.56;4832081;28;20609;-88
2021/12/02 00:17:27;;;;;;;2.25;1.63;;;;;;;-145.06;0.00;60892.56;4842586;28;20029;-88
2021/12/02 00:23:28;;;;;;;3.20;1.80;;;;;;;-145.06;0.00;60892.56;4835716;28;20026;-87
2021/12/02 00:26:18;;;;;;;3.45;1.85;;;;;;;-145.06;0.00;60892.56;4816785;28;20156;-89
2021/12/02 00:28:59;;;;;;;2.22;1.52;;;;;;;6.50;0.00;104794.97;4817038;28;20060;-88
2021/12/02 00:31:39;;;;;;;2.45;1.67;;;;;;;6.51;0.00;81616.88;4834416;28;20034;-88
2021/12/02 00:34:19;;;;;;;;;;;;;;;8.08;0.00;60892.56;4821100;28;20527;-87
2021/12/02 00:37:00;;;;;;;;;;;;;;;6.49;0.00;60892.56;4836961;28;20000;-87
2021/12/02 00:39:39;;;;;;;4.07;1.33;;;;;;;21.08;0.00;60892.56;4827552;28;19909;-88
2021/12/02 00:42:19;;;;;;;1.50;1.25;;;;;;;-145.06;0.00;60892.56;4816830;28;20030;-87
2021/12/02 00:44:58;;;;;;;;;;;;;;;8.08;0.00;60892.56;4824311;28;20034;-88
2021/12/02 00:47:38;;;;;;;2.60;1.38;;;;;;;-145.06;0.00;60892.56;4816581;28;20267;-88
2021/12/02 00:50:17;;;;;;;2.65;1.63;;;;;;;6.62;0.00;60892.56;4826152;28;20030;-88
2021/12/02 00:52:57;;;;;;;2.47;1.60;;;;;;;-145.06;0.00;60892.56;4823074;28;20030;-88
2021/12/02 00:55:38;;;;;;;2.13;1.52;;;;;;;-145.06;0.00;60892.56;4830443;28;20045;-87
2021/12/02 00:58:23;;;;;;;2.65;1.65;;;;;;;-145.06;0.00;60892.56;4847816;28;20038;-88
2021/12/02 01:01:03;;;;;;;2.40;1.45;;;;;;;6.79;0.00;60892.56;4822516;28;20037;-87
2021/12/02 01:03:43;;;;;;;2.47;1.40;;;;;;;-145.06;0.00;60892.56;4821089;28;20038;-87
2021/12/02 01:06:22;;;;;;;2.60;1.75;;;;;;;-145.06;0.00;60892.56;4820223;28;20144;-88
2021/12/02 01:09:04;;;;;;;1.63;1.52;;;;;;;8.08;0.00;60892.56;4843454;28;20057;-87
2021/12/02 01:11:44;;;;;;;1.88;1.40;;;;;;;6.62;0.00;60892.56;4829020;28;20065;-88
2021/12/02 01:14:23;;;;;;;;;;;;;;;6.79;0.00;60892.56;4823982;28;20531;-88
2021/12/02 01:17:02;;;;;;;2.60;1.30;;;;;;;6.50;0.00;60892.56;4835630;28;19914;-87
2021/12/02 01:19:40;;;;;;;1.83;1.40;;;;;;;6.62;0.00;60892.56;4828161;28;20367;-88
2021/12/02 01:22:20;;;;;;;1.93;1.40;;;;;;;6.79;0.00;60892.56;4813103;28;22031;-87
2021/12/02 01:25:01;;;;;;;2.58;1.33;;;;;;;10.68;0.00;60892.56;4823427;28;20972;-88
2021/12/02 01:27:43;;;;;;;3.30;1.48;;;;;;;8.08;0.00;60892.56;4828480;28;20042;-88
2021/12/02 01:30:26;;;;;;;3.10;1.65;;;;;;;-145.06;0.00;60892.56;4822156;28;20033;-87
2021/12/02 01:33:06;;;;;;;2.17;1.70;;;;;;;21.08;0.00;60892.56;4827630;28;20376;-87
2021/12/02 01:35:50;;;;;;;1.85;1.50;;;;;;;-145.06;0.00;60892.56;4831078;28;20030;-87
2021/12/02 01:38:31;;;;;;;2.25;1.60;;;;;;;6.79;0.00;60892.56;4839525;28;20038;-88
2021/12/02 01:41:10;;;;;;;2.83;1.63;;;;;;;-145.06;0.00;60892.56;4832744;28;20034;-88
2021/12/02 01:43:52;;;;;;;2.47;1.73;;;;;;;-145.06;0.00;60892.56;4817045;28;20033;-88
2021/12/02 01:46:36;;;;;;;2.75;1.40;;;;;;;6.79;0.00;60892.56;4823534;28;20276;-87
2021/12/02 01:49:16;;;;;;;1.63;1.17;;;;;;;10.68;0.00;60892.56;4824791;28;20045;-87
2021/12/02 01:51:55;;;;;;;;;;;;;;;6.48;0.00;60892.56;4841737;28;20376;-88
2021/12/02 01:54:44;;;;;;;2.03;1.55;;;;;;;-145.06;0.00;60892.56;4825835;28;19917;-88
2021/12/02 01:57:30;;;;;;;1.63;1.30;;;;;;;-145.06;0.00;60892.56;4817325;28;20041;-88
2021/12/02 02:00:15;;;;;;;1.50;1.20;;;;;;;6.42;0.00;60892.56;4815876;28;20038;-88
2021/12/02 02:02:54;;;;;;;3.10;1.50;;;;;;;-145.06;0.00;60892.56;4819358;28;20034;-87
2021/12/02 02:05:33;;;;;;;1.83;1.52;;;;;;;-145.06;0.00;60892.56;4822951;28;20582;-87
2021/12/02 02:08:17;;;;;;;5.05;1.50;;;;;;;6.79;0.00;60892.56;4824015;28;20038;-87
2021/12/02 02:10:56;;;;;;;2.83;1.52;;;;;;;6.79;0.00;60892.56;4835173;28;20029;-87
2021/12/02 02:13:35;;;;;;;3.83;1.30;;;;;;;6.30;0.00;60892.56;4818290;28;20615;-88
2021/12/02 02:16:14;;;;;;;3.97;1.67;;;;;;;6.26;0.00;60892.56;4829001;28;20034;-88
2021/12/02 02:18:54;;;;;;;1.52;1.15;;;;;;;-145.06;0.00;60892.56;4819713;28;20038;-88
2021/12/02 02:21:36;;;;;;;3.83;1.50;;;;;;;-145.06;0.00;60892.56;4816542;28;20365;-87
2021/12/02 02:24:17;;;;;;;2.33;0.95;;;;;;;-145.06;0.00;60892.56;4822360;28;20042;-87
2021/12/02 02:26:56;;;;;;;2.10;1.17;;;;;;;6.46;0.00;60892.56;4820050;28;20037;-88
2021/12/02 02:29:35;;;;;;;1.83;1.15;;;;;;;-145.06;0.00;60892.56;4816059;28;20026;-88
2021/12/02 02:32:14;;;;;;;2.77;1.03;;;;;;;-145.06;0.00;60892.56;4820689;28;20564;-88
2021/12/02 02:34:53;;;;;;;1.63;1.00;;;;;;;-145.06;0.00;60892.56;4841881;28;20746;-86
2021/12/02 02:37:34;;;;;;;2.30;1.10;;;;;;;6.46;0.00;60892.56;4821004;28;20022;-88
2021/12/02 02:40:15;;;;;;;1.58;0.73;;;;;;;-145.06;0.00;60892.56;4821688;28;20763;-88
2021/12/02 02:43:07;;;;;;;1.48;0.77;;;;;;;-145.06;0.00;60892.56;4818676;28;20042;-87
2021/12/02 02:45:46;;;;;;;1.60;0.88;;;;;;;-145.06;0.00;60892.56;4808376;28;20026;-88
2021/12/02 02:48:26;;;;;;;1.48;0.70;;;;;;;-145.06;0.00;60892.56;4812150;28;20471;-87
2021/12/02 02:51:05;;;;;;;2.50;0.98;;;;;;;-145.06;0.00;60892.56;4821231;28;20049;-87
2021/12/02 02:53:44;;;;;;;1.85;0.60;;;;;;;-145.06;0.00;60892.56;4821795;28;20049;-87
2021/12/02 02:56:27;;;;;;;1.95;0.77;;;;;;;-145.06;0.00;60892.56;4841673;28;20041;-87
2021/12/02 02:59:25;;;;;;;0.75;0.65;;;;;;;-145.06;0.00;60892.56;4819443;28;20645;-87
2021/12/02 03:07:42;;;;;;;2.75;0.93;;;;;;;187.52;0.00;60892.56;4827417;28;20041;-88
2021/12/02 03:10:44;;;;;;;1.75;0.70;;;;;;;-145.06;0.00;60892.56;4834945;28;20030;-88
2021/12/02 03:13:41;;;;;;;0.93;0.57;;;;;;;-145.06;0.00;60892.56;4830065;28;20037;-87
2021/12/02 03:19:27;;;;;;;3.00;0.88;;;;;;;-145.06;0.00;60892.56;4828941;28;20057;-88
2021/12/02 03:22:06;;;;;;;3.05;0.95;;;;;;;-145.06;0.00;60892.56;4813856;28;20046;-88
2021/12/02 03:24:45;;;;;;;2.20;1.00;;;;;;;-145.06;0.00;60892.56;4817081;28;20030;-88
2021/12/02 03:27:25;;;;;;;2.00;0.98;;;;;;;-145.06;0.00;60892.56;4835231;28;20034;-87
2021/12/02 03:30:06;;;;;;;;;;;;;;;-145.06;0.00;60892.56;4819515;28;20025;-88
2021/12/02 03:32:45;;;;;;;2.55;0.98;;;;;;;-145.06;0.00;60892.56;4817310;28;19949;-88
2021/12/02 03:35:24;;;;;;;2.20;0.70;;;;;;;-145.06;0.00;60892.56;4827635;28;20030;-87
2021/12/02 03:38:03;;;;;;;2.33;0.90;;;;;;;-145.06;0.00;60892.56;4834509;28;20041;-88
2021/12/02 03:40:43;;;;;;;1.15;0.70;;;;;;;-145.06;0.00;60892.56;4817430;28;20062;-87
2021/12/02 03:43:22;;;;;;;1.80;0.85;;;;;;;-145.06;0.00;60892.56;4826533;28;20042;-88
2021/12/02 03:46:01;;;;;;;1.55;1.05;;;;;;;-145.06;0.00;60892.56;4803493;28;20031;-87
2021/12/02 03:48:40;;;;;;;1.50;0.90;;;;;;;-145.06;0.00;60892.56;4815396;28;20034;-87
2021/12/02 03:51:20;;;;;;;1.58;1.25;;;;;;;-145.06;0.00;60892.56;4835200;28;20042;-87
2021/12/02 03:54:00;;;;;;;2.72;1.15;;;;;;;-145.06;0.00;60892.56;4828638;28;20034;-87
2021/12/02 03:56:38;;;;;;;1.95;1.10;;;;;;;-145.06;0.00;60892.56;4803192;28;20034;-88
2021/12/02 03:59:17;;;;;;;1.42;1.02;;;;;;;-145.06;0.00;60892.56;4820952;28;20034;-88
2021/12/02 04:01:56;;;;;;;3.92;1.20;;;;;;;-145.06;0.00;60892.56;4822203;28;20037;-87
2021/12/02 04:04:35;;;;;;;1.83;1.23;;;;;;;-145.06;0.00;60892.56;4816147;28;20061;-88
2021/12/02 04:07:17;;;;;;;1.33;0.82;;;;;;;-145.06;0.00;60892.56;4822255;28;20763;-88
2021/12/02 04:09:58;;;;;;;2.15;1.20;;;;;;;-145.06;0.00;60892.56;4836511;28;20129;-87
2021/12/02 04:13:06;;;;;;;1.92;1.10;;;;;;;-145.06;0.00;60892.56;4816813;28;20030;-88
2021/12/02 04:15:58;;;;;;;2.45;1.30;;;;;;;-145.06;0.00;60892.56;4840771;28;20045;-88
2021/12/02 04:18:37;;;;;;;2.30;1.20;;;;;;;-145.06;0.00;60892.56;4841367;28;20372;-87
2021/12/02 04:21:16;;;;;;;1.73;0.80;;;;;;;-145.06;0.00;60892.56;4840042;28;20026;-88
2021/12/02 04:23:55;;;;;;;2.53;1.15;;;;;;;-145.06;0.00;60892.56;4834894;28;20531;-87
2021/12/02 04:26:34;;;;;;;1.92;1.00;;;;;;;-145.06;0.00;60892.56;4829805;28;20042;-87
2021/12/02 04:29:13;;;;;;;4.85;1.10;;;;;;;-145.06;0.00;60892.56;4836113;28;20025;-87
2021/12/02 04:31:53;;;;;;;1.55;0.90;;;;;;;5.73;0.00;60892.56;4815535;28;20061;-87
2021/12/02 04:34:32;;;;;;;0.95;0.68;;;;;;;-145.06;0.00;60892.56;4818275;28;20583;-88
2021/12/02 04:37:11;;;;;;;1.50;1.10;;;;;;;-145.06;0.00;60892.56;4825498;28;20041;-88
2021/12/02 04:39:50;;;;;;;1.83;0.87;;;;;;;6.79;0.00;60892.56;4822622;28;20284;-88
2021/12/02 04:42:29;;;;;;;3.17;1.00;;;;;;;6.79;0.00;60892.56;4839461;28;20022;-87
2021/12/02 04:45:11;;;;;;;1.40;0.90;;;;;;;-145.06;0.00;60892.56;4821783;28;20069;-88
2021/12/02 04:47:50;;;;;;;2.17;0.80;;;;;;;-145.06;0.00;60892.56;4825116;28;20061;-88
2021/12/02 04:50:29;;;;;;;2.72;0.93;;;;;;;-145.06;0.00;60892.56;4850390;28;20029;-87
2021/12/02 04:53:09;;;;;;;2.65;1.02;;;;;;;-145.06;0.00;60892.56;4838183;28;20045;-87
2021/12/02 04:55:48;;;;;;;1.77;0.98;;;;;;;-145.06;0.00;60892.56;4822590;28;20026;-87
2021/12/02 04:58:27;;;;;;;1.90;1.30;;;;;;;-145.06;0.00;60892.56;4834232;28;20487;-88
2021/12/02 05:01:06;;;;;;;3.37;1.57;;;;;;;-145.06;0.00;60892.56;4832856;28;20033;-87
2021/12/02 05:03:45;;;;;;;1.80;1.33;;;;;;;-145.06;0.00;60892.56;4824008;28;20272;-88
2021/12/02 05:06:24;;;;;;;2.75;1.20;;;;;;;-145.06;0.00;60892.56;4833733;28;20092;-87
2021/12/02 05:09:03;;;;;;;2.20;1.60;;;;;;;-145.06;0.00;60892.56;4817856;28;20042;-88
2021/12/02 05:11:42;;;;;;;2.35;1.50;;;;;;;-145.06;0.00;60892.56;4824359;28;20042;-88
2021/12/02 05:14:20;;;;;;;2.70;1.58;;;;;;;-145.06;0.00;60892.56;4829295;28;20033;-88
2021/12/02 05:16:59;;;;;;;4.38;1.67;;;;;;;-145.06;0.00;60892.56;4836937;28;20045;-87
2021/12/02 05:19:38;;;;;;;3.30;2.00;;;;;;;-145.06;0.00;60892.56;4832453;28;20037;-88
2021/12/02 05:22:23;;;;;;;3.55;1.98;;;;;;;-145.06;0.00;60892.56;4835274;28;20260;-88
2021/12/02 05:25:03;;;;;;;4.30;2.10;;;;;;;-145.06;0.00;60892.56;4820150;28;20038;-88
2021/12/02 05:27:42;;;;;;;3.25;2.05;;;;;;;-145.06;0.00;60892.56;4818306;28;20030;-87
2021/12/02 05:30:22;;;;;;;2.47;1.77;;;;;;;-145.06;0.00;60892.56;4832082;28;20037;-87
2021/12/02 05:33:01;;;;;;;3.33;1.88;;;;;;;-145.06;0.00;60892.56;4827113;28;20034;-88
2021/12/02 05:35:40;;;;;;;6.53;1.90;;;;;;;-145.06;0.00;60892.56;4831900;28;20034;-89
2021/12/02 05:38:21;;;;;;;3.17;1.80;;;;;;;-145.06;0.00;60892.56;4819069;28;20276;-88
2021/12/02 05:41:01;;;;;;;3.15;1.60;;;;;;;-145.06;0.00;60892.56;4822426;28;20031;-88
2021/12/02 05:43:40;;;;;;;4.13;1.80;;;;;;;-145.06;0.00;60892.56;4838377;28;20029;-86
2021/12/02 05:46:19;;;;;;;3.30;1.40;;;;;;;-145.06;0.00;60892.56;4837784;28;20377;-88
2021/12/02 05:48:58;;;;;;;2.83;1.30;;;;;;;-145.06;0.00;60892.56;4816521;28;20610;-89
2021/12/02 05:51:37;;;;;;;1.50;1.20;;;;;;;-145.06;0.00;60892.56;4828919;28;20037;-88
2021/12/02 05:54:19;;;;;;;1.93;1.23;;;;;;;-145.06;0.00;60892.56;4816298;28;20034;-88
2021/12/02 05:56:58;;;;;;;2.88;1.38;;;;;;;-145.06;0.00;60892.56;4833906;28;20596;-89
2021/12/02 05:59:36;;;;;;;2.13;1.23;;;;;;;-145.06;0.00;60892.56;4825823;28;20037;-87
2021/12/02 06:02:16;;;;;;;3.77;1.57;;;;;;;-145.06;0.00;60892.56;4829855;28;20121;-88
2021/12/02 06:04:55;;;;;;;4.57;1.35;;;;;;;-145.06;0.00;60892.56;4821574;28;20293;-87
2021/12/02 06:07:35;;;;;;;3.17;1.50;;;;;;;-145.06;0.00;60892.56;4814033;28;20037;-87
2021/12/02 06:10:13;;;;;;;;;;;;;;;-145.06;0.00;60892.56;4818641;28;20057;-87
2021/12/02 06:12:53;;;;;;;2.45;1.42;;;;;;;-145.06;0.00;60892.56;4822879;28;19914;-88
2021/12/02 06:15:32;;;;;;;3.85;1.35;;;;;;;-145.06;0.00;60892.56;4830281;28;20022;-86
2021/12/02 06:18:11;;;;;;;3.10;1.70;;;;;;;-145.06;0.00;60892.56;4834990;28;20480;-88
2021/12/02 06:20:56;;;;;;;3.08;1.58;;;;;;;-145.06;0.00;60892.56;4825376;28;20277;-88
2021/12/02 06:23:36;;;;;;;5.32;1.80;;;;;;;-145.06;0.00;60892.56;4829639;28;20109;-88
2021/12/02 06:26:15;;;;;;;3.22;1.88;;;;;;;-145.06;0.00;60892.56;4818172;28;20034;-88
2021/12/02 06:28:58;;;;;;;2.80;1.63;;;;;;;-145.06;0.00;60892.56;4814962;28;20042;-88
2021/12/02 06:31:36;;;;;;;4.07;1.48;;;;;;;-145.06;0.00;60892.56;4831208;28;20265;-88
2021/12/02 06:34:15;;;;;;;2.00;1.43;;;;;;;-145.06;0.00;60892.56;4842664;28;20065;-88
2021/12/02 06:36:54;;;;;;;2.47;1.30;;;;;;;-145.06;0.00;60892.56;4821450;28;20738;-88
2021/12/02 06:39:33;;;;;;;4.78;1.50;;;;;;;-145.06;0.00;60892.56;4830603;28;20600;-88
2021/12/02 06:42:14;;;;;;;1.37;1.07;;;;;;;-145.06;0.00;60892.56;4817775;28;20069;-88
2021/12/02 06:44:53;;;;;;;2.90;1.08;;;;;;;-145.06;0.00;60892.56;4817914;28;20360;-88
2021/12/02 06:47:36;;;;;;;1.57;0.90;;;;;;;5.49;0.00;60892.56;4813184;28;20046;-88
2021/12/02 06:50:19;;;;;;;2.42;1.00;;;;;;;-145.06;0.00;60892.56;4835159;28;20037;-87
2021/12/02 06:52:58;;;;;;;2.10;1.27;;;;;;;-145.06;0.00;60892.56;4824315;28;20038;-88
2021/12/02 06:55:37;;;;;;;2.13;1.40;;;;;;;5.49;0.00;60892.56;4823117;28;20029;-87
2021/12/02 06:58:16;;;;;;;1.00;0.95;;;;;;;-145.06;0.00;60892.56;4829453;28;20037;-88
2021/12/02 07:00:55;;;;;;;1.43;1.33;;;;;;;-145.06;0.00;60892.56;4832715;28;20046;-89
2021/12/02 07:03:34;;;;;;;1.98;1.58;;;;;;;-145.06;0.00;60892.56;4818216;28;20304;-88
2021/12/02 07:06:12;;;;;;;2.67;1.98;;;;;;;-145.06;0.00;60892.56;4817461;28;20476;-88
2021/12/02 07:08:51;;;;;;;2.85;1.90;;;;;;;-145.06;0.00;60892.56;4812833;28;20050;-88
2021/12/02 07:11:31;;;;;;;3.83;2.22;;;;;;;-145.06;0.00;60892.56;4812539;28;20042;-88
2021/12/02 07:14:14;;;;;;;2.25;1.88;;;;;;;-145.06;0.00;60892.56;4835357;28;20029;-88
2021/12/02 07:16:53;;;;;;;1.58;1.35;;;;;;;-145.06;0.00;60892.56;4820357;28;20022;-88
2021/12/02 07:19:32;;;;;;;1.88;1.40;;;;;;;-145.06;0.00;60892.56;4819128;28;20026;-87
2021/12/02 07:22:11;;;;;;;1.87;1.37;;;;;;;-145.06;0.00;60892.56;4822386;28;20034;-88
2021/12/02 07:24:50;;;;;;;1.33;1.23;;;;;;;-145.06;0.00;60892.56;4815300;28;20037;-87
2021/12/02 07:27:29;;;;;;;1.77;1.35;;;;;;;4.86;0.00;60892.56;4824637;28;20484;-88
2021/12/02 07:30:09;;;;;;;1.60;1.20;;;;;;;-145.06;0.00;60892.56;4820853;28;20042;-88
2021/12/02 07:32:55;;;;;;;2.13;1.70;;;;;;;-145.06;0.00;60892.56;4816389;28;20272;-88
2021/12/02 07:35:34;;;;;;;3.53;1.58;;;;;;;-145.06;0.00;60892.56;4830878;28;20037;-88
2021/12/02 07:38:14;;;;;;;3.35;1.35;;;;;;;-145.06;0.00;60892.56;4812939;28;20384;-87
2021/12/02 07:41:02;;;;;;;1.10;0.90;;;;;;;-145.06;0.00;60892.56;4816235;28;20046;-88
2021/12/02 07:43:41;;;;;;;1.30;0.88;;;;;;;-145.06;0.00;60892.56;4835995;28;20022;-88
2021/12/02 07:46:22;;;;;;;1.52;0.98;;;;;;;-145.06;0.00;60892.56;4836588;28;20034;-88
2021/12/02 07:49:02;;;;;;;1.08;0.90;;;;;;;-145.06;0.00;60892.56;4816774;28;20042;-88
2021/12/02 07:51:45;;;;;;;0.70;0.70;;;;;;;-145.06;0.00;60892.56;4820000;28;20041;-88
2021/12/02 07:54:24;;;;;;;0.60;0.60;;;;;;;4.84;0.00;60892.56;4832170;28;20029;-88
2021/12/02 07:57:04;;;;;;;0.50;0.50;;;;;;;-145.06;0.00;60892.56;4837047;28;20488;-87
2021/12/02 07:59:43;;;;;;;0.40;0.40;;;;;;;-145.06;0.00;60892.56;4834793;28;20038;-87
2021/12/02 08:02:24;;;;;;;0.70;0.55;;;;;;;-145.06;0.00;60892.56;4825525;28;20029;-87
2021/12/02 08:05:03;;;;;;;0.40;0.40;;;;;;;-145.06;0.00;60892.56;4824542;28;20073;-87
2021/12/02 08:07:44;;;;;;;0.40;0.40;;;;;;;-145.06;0.00;60892.56;4838366;28;20022;-87
2021/12/02 08:10:23;;;;;;;0.50;0.50;;;;;;;-145.06;0.00;60892.56;4818116;28;20038;-88
2021/12/02 08:13:04;;;;;;;1.67;0.60;;;;;;;-145.06;0.00;60892.56;4813070;28;20053;-87
2021/12/02 08:15:43;;;;;;;0.98;0.70;;;;;;;-145.06;0.00;60892.56;4843435;28;20364;-88
2021/12/02 08:18:22;;;;;;;1.25;0.80;;;;;;;-145.06;0.00;60892.56;4824953;28;20026;-88
2021/12/02 08:21:01;;;;;;;0.70;0.65;;;;;;;-145.06;0.00;60892.56;4839229;28;20041;-88
2021/12/02 08:23:44;;;;;;;1.25;0.98;;;;;;;-145.06;0.00;60892.56;4824374;28;20038;-88
2021/12/02 08:26:23;;;;;;;0.60;0.60;;;;;;;-145.06;0.00;60892.56;4839263;28;20125;-87
2021/12/02 08:29:04;;;;;;;0.67;0.63;;;;;;;5.49;0.00;60892.56;4837308;28;20034;-87
2021/12/02 08:31:44;;;;;;;2.22;0.70;;;;;;;-145.06;0.00;60892.56;4807151;28;20105;-88
2021/12/02 08:34:22;;;;;;;1.08;0.80;;;;;;;-145.06;0.00;60892.56;4838757;28;20108;-87
2021/12/02 08:37:01;;;;;;;1.17;0.73;;;;;;;-145.06;0.00;60892.56;4825214;28;20113;-87
2021/12/02 08:39:45;;;;;;;0.90;0.73;;;;;;;-145.06;0.00;60892.56;4818793;28;20109;-87
2021/12/02 08:42:24;;;;;;;1.27;0.90;;;;;;;-145.06;0.00;60892.56;4831278;28;20444;-88
2021/12/02 08:45:04;;;;;;;1.67;0.98;;;;;;;-145.06;0.00;60892.56;4825000;28;20034;-87
2021/12/02 08:47:46;;;;;;;;;;;;;;;-145.06;0.00;60892.56;4825377;28;20507;-89
2021/12/02 08:50:25;;;;;;;0.95;0.90;;;;;;;-145.06;0.00;60892.56;4824843;28;20000;-88
2021/12/02 08:53:06;;;;;;;1.15;1.00;;;;;;;-145.06;0.00;60892.56;4812296;28;20488;-88
2021/12/02 08:55:45;;;;;;;1.77;1.13;;;;;;;-145.06;0.00;60892.56;4831857;28;20025;-88
2021/12/02 08:58:24;;;;;;;3.03;1.67;;;;;;;-145.06;0.00;60892.56;4825205;28;20708;-88
2021/12/02 09:01:03;;;;;;;1.80;1.20;;;;;;;-145.06;0.00;60892.56;4820550;28;20702;-88
2021/12/02 09:03:42;;;;;;;1.85;1.65;;;;;;;-145.06;0.00;60892.56;4837539;28;20644;-87
2021/12/02 09:06:23;;;;;;;2.00;1.80;;;;;;;-145.06;0.00;60892.56;4821728;28;20027;-88
2021/12/02 09:09:02;;;;;;;3.10;2.05;;;;;;;-145.06;0.00;60892.56;4824062;28;20041;-88
2021/12/02 09:11:41;;;;;;;2.28;1.98;;;;;;;-145.06;0.00;60892.56;4821337;28;20034;-88
2021/12/02 09:14:21;;;;;;;2.70;1.93;;;;;;;-145.06;0.00;60892.56;4822307;28;20038;-88
2021/12/02 09:16:59;;;;;;;2.47;1.80;;;;;;;-145.06;0.00;60892.56;4823516;28;20269;-88
2021/12/02 09:19:39;;;;;;;3.40;2.28;;;;;;;-145.06;0.00;60892.56;4818723;28;20282;-88
2021/12/02 09:22:18;;;;;;;2.57;2.03;;;;;;;-145.06;0.00;60892.56;4823400;28;20034;-86
2021/12/02 09:24:57;;;;;;;2.45;1.77;;;;;;;-145.06;0.00;60892.56;4825089;28;20022;-87
2021/12/02 09:27:36;;;;;;;2.73;1.53;;;;;;;-145.06;0.00;60892.56;4818925;28;20030;-87
2021/12/02 09:30:17;;;;;;;3.20;1.70;;;;;;;-145.06;0.00;60892.56;4824459;28;20273;-88
2021/12/02 09:32:56;;;;;;;1.85;1.13;;;;;;;-145.06;0.00;60892.56;4837495;28;20030;-88
2021/12/02 09:35:36;;;;;;;1.85;0.90;;;;;;;-145.06;0.00;60892.56;4835138;28;20030;-88
2021/12/02 09:38:15;;;;;;;0.60;0.60;;;;;;;-145.06;0.00;60892.56;4846834;28;20791;-87
2021/12/02 09:40:54;;;;;;;0.70;0.70;;;;;;;4.18;0.00;60892.56;4845616;28;20467;-87
2021/12/02 09:43:33;;;;;;;0.50;0.40;;;;;;;4.13;0.00;60892.56;4829917;28;20057;-87
2021/12/02 09:46:12;;;;;;;0.33;0.33;;;;;;;-145.06;0.00;60892.56;4823911;28;20034;-87
2021/12/02 09:48:54;;;;;;;0.50;0.50;;;;;;;-145.06;0.00;60892.56;4820756;28;20281;-88
2021/12/02 09:51:59;;;;;;;0.40;0.40;;;;;;;21.08;0.00;60892.56;4838792;28;20269;-87
2021/12/02 09:54:42;;;;;;;1.55;0.70;;;;;;;-145.06;0.00;60892.56;4821286;28;20034;-88
2021/12/02 09:57:28;;;;;;;0.50;0.50;;;;;;;-145.06;0.00;60892.56;4825158;28;20034;-88
2021/12/02 10:00:15;;;;;;;0.82;0.80;;;;;;;-145.06;0.00;60892.56;4820991;28;20112;-88
2021/12/02 10:03:05;;;;;;;1.27;0.60;;;;;;;-145.06;0.00;60892.56;4822210;28;20113;-87
2021/12/02 10:05:54;;;;;;;1.60;0.80;;;;;;;10.68;0.00;60892.56;4823400;28;20539;-87
2021/12/02 10:08:39;;;;;;;1.77;1.10;;;;;;;3.99;0.00;60892.56;4816544;28;20042;-88
2021/12/02 10:11:31;;;;;;;1.08;0.85;;;;;;;3.94;0.00;60892.56;4829836;28;20037;-87
2021/12/02 10:14:36;;;;;;;2.95;1.40;;;;;;;-145.06;0.00;60892.56;4832018;28;20030;-87
2021/12/02 10:17:27;;;;;;;2.47;1.20;;;;;;;-145.06;0.00;60892.56;4838682;28;20380;-88
2021/12/02 10:20:23;;;;;;;1.40;1.08;;;;;;;3.98;0.00;60892.56;4822028;28;20042;-88
2021/12/02 10:23:28;;;;;;;1.67;1.30;;;;;;;-145.06;0.00;60892.56;4815265;28;20037;-87
2021/12/02 10:26:09;;;;;;;1.90;1.30;;;;;;;4.02;0.00;60892.56;4817993;28;20030;-88
2021/12/02 10:28:51;;;;;;;1.55;1.20;;;;;;;-145.06;0.00;60892.56;4834924;28;20037;-88
2021/12/02 10:31:30;;;;;;;2.00;1.40;;;;;;;4.05;0.00;60892.56;4818681;28;20117;-87
2021/12/02 10:34:09;;;;;;;1.98;1.33;;;;;;;-145.06;0.00;60892.56;4840084;28;20037;-87
2021/12/02 10:36:48;;;;;;;2.43;1.40;;;;;;;4.19;0.00;60892.56;4847448;28;20030;-87
2021/12/02 10:39:27;;;;;;;1.73;1.13;;;;;;;-145.06;0.00;60892.56;4841038;28;20387;-88
2021/12/02 10:42:09;;;;;;;1.50;1.13;;;;;;;-145.06;0.00;60892.56;4822200;28;20273;-88
2021/12/02 10:44:49;;;;;;;1.25;1.13;;;;;;;4.06;0.00;60892.56;4809142;28;20038;-87
2021/12/02 10:47:29;;;;;;;4.72;1.73;;;;;;;-145.06;0.00;60892.56;4819531;28;20042;-88
2021/12/02 10:50:10;;;;;;;2.75;1.30;;;;;;;-145.06;0.00;60892.56;4818495;28;20034;-88
2021/12/02 10:52:51;;;;;;;2.03;1.30;;;;;;;-145.06;0.00;60892.56;4829977;28;20022;-88
2021/12/02 10:55:32;;;;;;;3.17;1.30;;;;;;;4.84;0.00;60892.56;4834831;28;20033;-88
2021/12/02 10:58:11;;;;;;;2.78;1.50;;;;;;;-145.06;0.00;60892.56;4826451;28;20038;-88
2021/12/02 11:00:51;;;;;;;2.05;1.60;;;;;;;-145.06;0.00;60892.56;4837451;28;20029;-88
2021/12/02 11:03:30;;;;;;;3.55;1.38;;;;;;;-145.06;0.00;60892.56;4822472;28;20029;-88
2021/12/02 11:06:12;;;;;;;0.95;0.85;;;;;;;-145.06;0.00;60892.56;4833555;28;20029;-88
2021/12/02 11:08:51;;;;;;;3.45;1.30;;;;;;;-145.06;0.00;60892.56;4843276;28;20038;-88
2021/12/02 11:11:30;;;;;;;4.10;1.60;;;;;;;-145.06;0.00;60892.56;4820619;28;20022;-87
2021/12/02 11:14:12;;;;;;;2.72;1.80;;;;;;;-145.06;0.00;60892.56;4822107;28;20038;-88
2021/12/02 11:16:51;;;;;;;3.67;1.70;;;;;;;-145.06;0.00;60892.56;4804055;28;20034;-88
2021/12/02 11:19:30;;;;;;;5.80;2.23;;;;;;;-145.06;0.00;60892.56;4829738;28;20034;-88
2021/12/02 11:22:12;;;;;;;3.42;1.90;;;;;;;-145.06;0.00;60892.56;4827664;28;20038;-88
2021/12/02 11:24:51;;;;;;;4.80;2.10;;;;;;;-145.06;0.00;60892.56;4831510;28;20042;-88
2021/12/02 11:27:44;;;;;;;4.75;2.30;;;;;;;-145.06;0.00;60892.56;4815665;28;20607;-89
2021/12/02 11:30:25;;;;;;;2.10;1.50;;;;;;;-145.06;0.00;60892.56;4818240;28;20038;-88
2021/12/02 11:33:06;;;;;;;5.15;1.88;;;;;;;-145.06;0.00;60892.56;4857751;28;20037;-88
2021/12/02 11:35:47;;;;;;;2.97;1.80;;;;;;;-145.06;0.00;60892.56;4826536;28;20475;-87
2021/12/02 11:38:28;;;;;;;2.28;1.52;;;;;;;-145.06;0.00;60892.56;4822629;28;20026;-87
2021/12/02 11:41:08;;;;;;;1.75;1.20;;;;;;;-145.06;0.00;60892.56;4832138;28;20041;-88
2021/12/02 11:43:49;;;;;;;;;;;;;;;-145.06;0.00;60892.56;4836930;28;20480;-88
2021/12/02 11:46:34;;;;;;;3.40;1.38;;;;;;;-145.06;0.00;60892.56;4823687;28;19918;-87
2021/12/02 11:49:13;;;;;;;3.03;1.80;;;;;;;-145.06;0.00;60892.56;4841758;28;20486;-87
2021/12/02 11:51:52;;;;;;;3.83;2.05;;;;;;;-145.06;0.00;60892.56;4839577;28;20030;-88
2021/12/02 11:54:32;;;;;;;3.93;2.23;;;;;;;-145.06;0.00;60892.56;4840909;28;20030;-87
2021/12/02 11:57:12;;;;;;;3.83;2.08;;;;;;;-145.06;0.00;60892.56;4825012;28;20376;-87
2021/12/02 11:59:51;;;;;;;2.35;1.52;;;;;;;-145.06;0.00;60892.56;4840034;28;20045;-88
2021/12/02 12:02:30;;;;;;;1.88;1.15;;;;;;;-145.06;0.00;60892.56;4818267;28;20483;-88
2021/12/02 12:05:10;;;;;;;3.38;1.40;;;;;;;-145.06;0.00;60892.56;4840130;28;20046;-88
2021/12/02 12:07:49;;;;;;;2.30;1.10;;;;;;;-145.06;0.00;60892.56;4832877;28;20037;-87
2021/12/02 12:10:33;;;;;;;2.50;1.20;;;;;;;-145.06;0.00;60892.56;4832081;28;20033;-87
2021/12/02 12:13:22;;;;;;;3.97;1.30;;;;;;;-145.06;0.00;60892.56;4830135;28;20558;-87
2021/12/02 12:16:01;;;;;;;1.17;0.90;;;;;;;-145.06;0.00;60892.56;4841488;28;20104;-87
2021/12/02 12:18:40;;;;;;;2.05;0.95;;;;;;;-145.06;0.00;60892.56;4837446;28;20472;-88
2021/12/02 12:21:35;;;;;;;2.30;1.30;;;;;;;-145.06;0.00;60892.56;4817336;28;20121;-87
2021/12/02 12:24:15;;;;;;;2.45;1.02;;;;;;;-145.06;0.00;60892.56;4807887;28;20037;-87
2021/12/02 12:27:16;;;;;;;2.17;1.17;;;;;;;-145.06;0.00;60892.56;4839406;28;20033;-87
2021/12/02 12:30:09;;;;;;;2.28;1.00;;;;;;;-145.06;0.00;60892.56;4833864;28;20037;-88
2021/12/02 12:38:33;;;;;;;1.90;1.10;;;;;;;-145.06;0.00;60892.56;4848148;28;20022;-87
2021/12/02 12:41:17;;;;;;;2.85;1.00;;;;;;;-145.06;0.00;60892.56;4837150;28;20030;-88
2021/12/02 12:43:59;;;;;;;1.45;0.90;;;;;;;-145.06;0.00;60892.56;4839673;28;20038;-87
2021/12/02 12:46:57;;;;;;;1.33;0.95;;;;;;;-145.06;0.00;60892.56;4821758;28;20515;-87
2021/12/02 12:49:39;;;;;;;1.10;0.73;;;;;;;-145.06;0.00;60892.56;4835200;28;20368;-88
2021/12/02 12:52:19;;;;;;;2.35;1.13;;;;;;;-145.06;0.00;60892.56;4839515;28;20033;-88
2021/12/02 12:55:17;;;;;;;1.73;0.93;;;;;;;-145.06;0.00;60892.56;4825859;28;20038;-87